Waarschuwingen Drenthe

Code Geel.Aanhoudende hitte, Nationaal Hitteplan RIVM actief.

Er is sprake van aanhoudende hitte. Besteed extra zorg en aandacht aan kwetsbare mensen in uw omgeving. Met name ouderen en mensen met een chronische aandoening wordt geadviseerd maatregelen te nemen: drink voldoende, houd uzelf en uw woning koel. (van 16/08/2022 18:00 tot 17/08/2022 02:00 uur)

Bron: KNMI



Webcam op het Zuiden more information Webcam op het Zuiden


Webcam op het Westen more information Webcam op het Westen


Thunder radar more information blitzortung!


Rain radar  rain snow radar


Lokaal brand risico:
CBI


Regionaal brand risico: Meer informatie


Lokaal brand risico:
Gebaseerd op actuele waarde
CBI


Visit our other weather sites:

Template documentation
and downloads

And another site



Nearby METAR Reports

   
ETWM - Meppen, Germany
Distance from station: E 29 km
Updated: 16-08-2022 17:20
  
  
   Wind: West 9.3 km/h
Wind: West 9.3 km/h
Temperature: 30°C
Dew Point: 11°C
Humidity: 31%
Barometer: 1008 hPa
ETWM 161520Z AUTO 26005KT //// // ////// 30/11 Q1008 ///
EHGG - Groningen/Eelde, Netherlands
Distance from station: NNW 47 km
Updated: 16-08-2022 17:55
Partly Cloudy  
Partly Cloudy  
   Wind: West 13 km/h
Wind: West 13 km/h
Temperature: 27°C
Heat Index: 28°C
Dew Point: 17°C
Humidity: 54%
Barometer: 1008 hPa
Clouds: Partly Cloudy
Visibility: More than 10 km
Cloud details: Partly Cloudy
EHGG 161555Z AUTO 28007KT 250V310 9999 NSC 27/17 Q1008 NOSIG
EDDG - Muenster/Osnabru, Germany
Distance from station: SE 87 km
Updated: 16-08-2022 17:50
Clear  
Clear  
   Wind: SW 11.1 km/h
Wind: SW 11.1 km/h
Temperature: 31°C
Dew Point: 13°C
Humidity: 33%
Barometer: 1008 hPa
Visibility: More than 10 km
Cloud details: Clear
EDDG 161550Z AUTO 23006KT 170V280 CAVOK 31/13 Q1008 NOSIG
EHLW - Leeuwarden Rnlaf, Netherlands
Distance from station: NW 93 km
Updated: 16-08-2022 17:55
Overcast  
Overcast  
   Wind: West 13 km/h
Wind: West 13 km/h
Temperature: 23°C
Dew Point: 18°C
Humidity: 74%
Barometer: 1008 hPa
Clouds: Overcast
Visibility: More than 10 km
Cloud details: Overcast 12000 ft
EHLW 161555Z AUTO 27007KT 260V330 9999 OVC120 23/18 Q1008 BLU
ETNT - Wittmundhaven(Ga, Germany
Distance from station: NNE 100 km
Updated: 16-08-2022 17:20
Partly Cloudy  
Partly Cloudy  
   Wind: WNW 13 km/h
Wind: WNW 13 km/h
Temperature: 27°C
Heat Index: 28°C
Dew Point: 19°C
Humidity: 62%
Barometer: 1008 hPa
Clouds: Partly Cloudy
Visibility: More than 10 km
Cloud details: Few Clouds 6000 ft,
Partly Cloudy 27000 ft
ETNT 161520Z 30007KT 9999 FEW060 SCT270 27/19 Q1008 BLACKBLU+
ETND - Diepholz (ger-Af, Germany
Distance from station: E 104 km
Updated: 16-08-2022 15:20
NOT Current
Light Showers, Rain, Partly Cloudy  
Light Showers, Rain, Partly Cloudy  
   Wind: SSW 11.1 km/h
Wind: SSW 11.1 km/h
Temperature: 27°C
Heat Index: 27°C
Dew Point: 16°C
Humidity: 51%
Barometer: 1008 hPa
Clouds: Partly Cloudy
Visibility: More than 10 km
Cloud details: Partly Cloudy 5000 ft
ETND 161320Z 21006KT 9999 -SHRA SCT050TCU 27/16 Q1008 BLU+
ETNT - Wittmundhaven(Ga, Germany
Distance from station: NNE 102 km
Updated: 16-08-2022 17:20
Partly Cloudy  
Partly Cloudy  
   Wind: WNW 13 km/h
Wind: WNW 13 km/h
Temperature: 27°C
Heat Index: 28°C
Dew Point: 19°C
Humidity: 62%
Barometer: 1008 hPa
Clouds: Partly Cloudy
Visibility: More than 10 km
Cloud details: Few Clouds 6000 ft,
Partly Cloudy 27000 ft
ETNT 161520Z 30007KT 9999 FEW060 SCT270 27/19 Q1008 BLACKBLU+
EHDL - Deelen Rnlafb, Netherlands
Distance from station: SW 103 km
Updated: 16-08-2022 17:55
Overcast  
Overcast  
   Wind: West 11.1 km/h
Wind: West 11.1 km/h
Temperature: 28°C
Heat Index: 28°C
Dew Point: 13°C
Humidity: 40%
Barometer: 1008 hPa
Clouds: Overcast
Visibility: More than 10 km
Cloud details: Overcast 17000 ft
EHDL 161555Z AUTO 27006KT 230V350 9999 OVC170 28/13 Q1008 BLU
EHMA - Awg-1 Sea, Netherlands
Distance from station: NW 105 km
Updated: 16-08-2022 17:55
Partly Cloudy  
Partly Cloudy  
   Wind: West 20.4 km/h
Wind: West 20.4 km/h
Temperature: 21°C
Dew Point: 18°C
Humidity: 83%
Barometer: 1009 hPa
Clouds: Partly Cloudy
Visibility: More than 10 km
Cloud details: Partly Cloudy
EHMA 161555Z AUTO 28011KT 9999 NSC 21/18 Q1009
EDDW - Bremen, Germany
Distance from station: ENE 135 km
Updated: 16-08-2022 17:50
Few Clouds  
Few Clouds  
   Wind: NNW 9.3 km/h
Wind: NNW 9.3 km/h
Temperature: 28°C
Heat Index: 28°C
Dew Point: 13°C
Humidity: 40%
Barometer: 1008 hPa
Clouds: Few Clouds
Visibility: More than 10 km
Cloud details: Few Clouds 4600 ft
EDDW 161550Z AUTO 33005KT 300V360 9999 FEW046 28/13 Q1008 NOSIG
EHVL - Vlieland Island, Netherlands
Distance from station: WNW 138 km
Updated: 16-08-2022 17:55
Overcast  
Overcast  
   Wind: West 14.8 km/h
Wind: West 14.8 km/h
Temperature: 22°C
Dew Point: 18°C
Humidity: 78%
Barometer: 1009 hPa
Clouds: Overcast
Visibility: More than 10 km
Cloud details: Overcast 14000 ft
EHVL 161555Z AUTO 27008KT 9999 OVC140 22/18 Q1009 BLU
EDLV - Niederrhein, Germany
Distance from station: SSW 139 km
Updated: 16-08-2022 17:50
Clear  
Clear  
   Wind: WNW 9.3 km/h
Wind: WNW 9.3 km/h
Temperature: 29°C
Dew Point: 12°C
Humidity: 35%
Barometer: 1008 hPa
Visibility: More than 10 km
Cloud details: Clear
EDLV 161550Z 29005KT 250V340 CAVOK 29/12 Q1008
EHKD - De Kooy (navy), Netherlands
Distance from station: W 144 km
Updated: 16-08-2022 17:55
Overcast  
Overcast  
   Wind: West 9.3 km/h
Wind: West 9.3 km/h
Temperature: 22°C
Dew Point: 17°C
Humidity: 73%
Barometer: 1009 hPa
Clouds: Overcast
Visibility: More than 10 km
Cloud details: Overcast 13000 ft
EHKD 161555Z AUTO 28005KT 240V320 9999 OVC130 22/17 Q1009 BLU NOSIG
EDLW - Dortmund/Wickede, Germany
Distance from station: SSE 150 km
Updated: 16-08-2022 17:50
Clear  
Clear  
   Wind: varies 9.3 km/h
Wind: varies 9.3 km/h
Temperature: 30°C
Dew Point: 12°C
Humidity: 33%
Barometer: 1008 hPa
Visibility: More than 10 km
Cloud details: Clear
EDLW 161550Z VRB05KT CAVOK 30/12 Q1008
EHVK - Volkel Rnlafb, Netherlands
Distance from station: SSW 149 km
Updated: 16-08-2022 17:55
Overcast  
Overcast  
   Wind: WSW 11.1 km/h
Wind: WSW 11.1 km/h
Temperature: 29°C
Dew Point: 11°C
Humidity: 33%
Barometer: 1008 hPa
Clouds: Overcast
Visibility: More than 10 km
Cloud details: Overcast 16000 ft
EHVK 161555Z AUTO 25006KT 170V250 9999 OVC160 29/11 Q1008 BLU
EDLW - Dortmund/Wickede, Germany
Distance from station: SSE 150 km
Updated: 16-08-2022 17:50
Clear  
Clear  
   Wind: varies 9.3 km/h
Wind: varies 9.3 km/h
Temperature: 30°C
Dew Point: 12°C
Humidity: 33%
Barometer: 1008 hPa
Visibility: More than 10 km
Cloud details: Clear
EDLW 161550Z VRB05KT CAVOK 30/12 Q1008
EHMG - L9-Ff-1 Sea, Netherlands
Distance from station: NW 155 km
Updated: 16-08-2022 17:55
Mostly Cloudy  
Mostly Cloudy  
   Wind: West 13 km/h
Wind: West 13 km/h
Temperature: 20°C
Dew Point: 18°C
Humidity: 88%
Barometer: 1010 hPa
Clouds: Mostly Cloudy
Visibility: More than 10 km
Cloud details: Mostly Cloudy 600 ft
EHMG 161555Z AUTO 26007KT 9999 BKN006 20/18 Q1010
ETHB - Buckeburg(Ger-Ar, Germany
Distance from station: ESE 161 km
Updated: 16-08-2022 17:20
Few Clouds  
Few Clouds  
   Wind: NW 13 km/h
Wind: NW 13 km/h
Temperature: 30°C
Dew Point: 12°C
Humidity: 33%
Barometer: 1008 hPa
Clouds: Few Clouds
Visibility: More than 10 km
Cloud details: Few Clouds 6500 ft
ETHB 161520Z 31007KT 9999 FEW065 30/12 Q1008 BLU+BLU+
ETMN - Nordholz (ger-Na, Germany
Distance from station: NE 164 km
Updated: 16-08-2022 17:20
Partly Cloudy  
Partly Cloudy  
   Wind: West 18.5 km/h
Wind: West 18.5 km/h
Temperature: 28°C
Heat Index: 28°C
Dew Point: 16°C
Humidity: 48%
Barometer: 1007 hPa
Clouds: Partly Cloudy
Visibility: More than 10 km
Cloud details: Few Clouds 4500 ft,
Partly Cloudy 31000 ft
ETMN 161520Z 27010KT 9999 FEW045TCU SCT310 28/16 Q1007 BLU+BLU+
EDDL - Duesseldorf, Germany
Distance from station: S 165 km
Updated: 16-08-2022 17:50
Clear  
Clear  
   Wind: WSW 9.3 km/h
Wind: WSW 9.3 km/h
Temperature: 29°C
Dew Point: 13°C
Humidity: 37%
Barometer: 1008 hPa
Visibility: More than 10 km
Cloud details: Clear
EDDL 161550Z AUTO 25005KT 220V290 CAVOK 29/13 Q1008 NOSIG
EDLN - Monchengladbach, Germany
Distance from station: S 174 km
Updated: 16-08-2022 17:50
Clear  
Clear  
   Wind: NNW 5.6 km/h
Wind: NNW 5.6 km/h
Temperature: 29°C
Heat Index: 29°C
Dew Point: 16°C
Humidity: 45%
Barometer: 1008 hPa
Visibility: More than 10 km
Cloud details: Clear
EDLN 161550Z 34003KT 230V040 CAVOK 29/16 Q1008

Script developed by  Saratoga-weather.org Adapted for the template by  Weerstation Leuven

You find our weather info also at:

Het Weer Aktueel

European Weather Network

Weather Underground

Wetterpage 24

Equipment we use:

Weather-station
Davis VP2

Weather-program
Meteohub

Hardware
RaspberryPI, Wireless Weather Envoy, MeteoStick, TP-Link MR3020

Provider
Weerhuisje.nl weerstations

Davis VP2

Meteohub

RaspberryPI, Wireless Weather Envoy, MeteoStick, TP-Link MR3020

Weerhuisje.nl weerstations